Aviation Digital Data Service (ADDS)

Output produced by TAFs form (0453 UTC 30 March 2017)
found at http://www.aviationweather.gov/adds/tafs/
 
METAR text: RJOF 300230Z 17007KT 130V200 9000 FEW020 SCT035 17/11 Q1020 RMK 1CU020 3CU035 A3013
Conditions at: RJOF (HOFU (JASDF) , JP) observed 0230 UTC 30 March 2017
Temperature: 17.0°C (63°F)
Dewpoint: 11.0°C (52°F) [RH = 68%]
Pressure (altimeter): 30.12 inches Hg (1020.0 mb)
Winds: from the S (170 degrees) at 8 MPH (7 knots; 3.6 m/s)
Visibility: 6 miles (9 km)
Ceiling: at least 12,000 feet AGL
Clouds: few clouds at 2000 feet AGL
scattered clouds at 3500 feet AGL
Weather: no significant weather observed at this time